North Plains, Oregon
Current Conditions -  °F | °C
As of 12:55 AM on Monday 22 Dec 2014 (Local Time) from KHIO Reporting Station
Overcast Overcast  
Wind Chill: 49°   Ceiling: 2600
Heat Index: 49°   Visibility: 9mi
Dew Point: 49°   Wind: 0mph
Humidity: 100%   Direction: NA
Pressure: 30.2"   Gusts: NA
Location:  45.6°N, 122.99°W
Report Text: KHIO 220855Z AUTO 00000KT 9SM FEW006 BKN026 OVC040 09/09 A3020 RMK AO2 T00940094
Loading
Personal Weather Stations






























Interactive Weather Map New forecast layout! Learn more

10-Day Weather Forecast

Advertisements
Track Severe Weather on mobile